Temp: 4.3°C   Baro: 1017.2mb
  Wind: 0.0mph   Dir: NNW (342°)
  Rain: 0.0mm (0.0mm/hr)
  Solar: 0W/m2  Hum: 83%

Historic data

Bath Spa Weather Station Historical Data
Daily Summary for July 17, 2021 Units:  Metric    English   Both
Daily Weekly Monthly Yearly Custom
  High: Low: Average:
Temperature: 11.5 °C 5.8 °C 8.2 °C
Dew Point: 9.2 °C 5 °C 7.1 °C
Humidity: 95% 78% 89%
Wind Speed: 12.2km/h 0km/h 2.4km/h
Wind Gust: 22.5km/h - -
Wind- - WNW
Pressure: 1029.3 hPa 1020.9 hPa -
Precipitation: 0.25 mm    
Historical Graphs
 
 
Tabular Data for July 17, 2021
Time Temperature Dew Point Pressure Wind Wind Speed Wind Gust Humidity Rainfall Rate (Hourly) solar
00:04 8.6 °C 8.2 °C 1021.2 hPa WNW 4.7 km/h 6.4 km/h 94% 0 mm 0 W/m2
00:09 8.7 °C 8.3 °C 1021.2 hPa WNW 5.1 km/h 8 km/h 94% 0 mm 0 W/m2
00:14 8.7 °C 8.3 °C 1020.9 hPa WNW 5.8 km/h 8 km/h 94% 0 mm 0 W/m2
00:19 8.9 °C 8.5 °C 1020.9 hPa WNW 6.9 km/h 11.3 km/h 94% 0 mm 0 W/m2
00:24 9.2 °C 8.7 °C 1020.9 hPa WNW 5.1 km/h 11.3 km/h 94% 0 mm 0 W/m2
00:28 9.2 °C 8.8 °C 1020.9 hPa WNW 2.4 km/h 6.4 km/h 94% 0 mm 0 W/m2
00:34 9.1 °C 8.7 °C 1021.2 hPa WNW 5.6 km/h 8 km/h 94% 0 mm 0 W/m2
00:39 8.9 °C 8.5 °C 1021.2 hPa WNW 4.8 km/h 8 km/h 94% 0 mm 0 W/m2
00:44 8.9 °C 8.5 °C 1020.9 hPa WNW 3.9 km/h 8 km/h 94% 0 mm 0 W/m2
00:49 9.1 °C 8.7 °C 1020.9 hPa WNW 3.2 km/h 6.4 km/h 94% 0 mm 0 W/m2
00:54 9.1 °C 8.7 °C 1020.9 hPa WNW 4.5 km/h 8 km/h 94% 0 mm 0 W/m2
00:59 9 °C 8.6 °C 1020.9 hPa WNW 5.8 km/h 9.7 km/h 94% 0 mm 0 W/m2
01:04 9 °C 8.6 °C 1021.2 hPa WNW 6.4 km/h 9.7 km/h 94% 0 mm 0 W/m2
01:09 8.9 °C 8.5 °C 1021.2 hPa WNW 6.9 km/h 12.9 km/h 94% 0 mm 0 W/m2
01:14 9.1 °C 8.7 °C 1021.2 hPa WNW 7.9 km/h 11.3 km/h 94% 0 mm 0 W/m2
01:19 9.2 °C 8.8 °C 1020.9 hPa WNW 5.1 km/h 8 km/h 94% 0 mm 0 W/m2
01:24 9.2 °C 8.8 °C 1020.9 hPa WNW 4.7 km/h 8 km/h 94% 0 mm 0 W/m2
01:29 9.2 °C 8.8 °C 1020.9 hPa WNW 4.3 km/h 8 km/h 94% 0 mm 0 W/m2
01:34 9.2 °C 8.8 °C 1020.9 hPa WNW 3.4 km/h 6.4 km/h 94% 0 mm 0 W/m2
01:39 9.2 °C 8.8 °C 1020.9 hPa WNW 4.3 km/h 6.4 km/h 94% 0 mm 0 W/m2
01:44 9.2 °C 8.8 °C 1021.2 hPa WNW 0.6 km/h 6.4 km/h 94% 0 mm 0 W/m2
01:49 9.2 °C 8.8 °C 1021.2 hPa WNW 1.4 km/h 4.8 km/h 94% 0 mm 0 W/m2
01:54 9.3 °C 8.9 °C 1021.2 hPa WNW 1.3 km/h 4.8 km/h 94% 0 mm 0 W/m2
01:59 9.3 °C 8.9 °C 1021.2 hPa WNW 3.5 km/h 4.8 km/h 94% 0 mm 0 W/m2
02:04 9.3 °C 8.9 °C 1021.2 hPa WNW 3.2 km/h 6.4 km/h 94% 0 mm 0 W/m2
02:09 9.3 °C 8.9 °C 1021.2 hPa WNW 3.2 km/h 4.8 km/h 94% 0 mm 0 W/m2
02:14 9.3 °C 8.9 °C 1020.9 hPa WNW 3.7 km/h 8 km/h 94% 0 mm 0 W/m2
02:19 9.2 °C 8.8 °C 1021.2 hPa WNW 4.7 km/h 6.4 km/h 94% 0 mm 0 W/m2
02:24 9.2 °C 8.8 °C 1021.2 hPa WNW 4.5 km/h 9.7 km/h 94% 0 mm 0 W/m2
02:29 9.3 °C 8.9 °C 1021.2 hPa WNW 5.8 km/h 9.7 km/h 94% 0 mm 0 W/m2
02:34 9.3 °C 8.9 °C 1021.2 hPa WNW 5 km/h 9.7 km/h 94% 0 mm 0 W/m2
02:39 9.3 °C 8.9 °C 1021.2 hPa WNW 3.9 km/h 8 km/h 94% 0 mm 0 W/m2
02:44 9.4 °C 9 °C 1021.2 hPa WNW 4.3 km/h 8 km/h 94% 0 mm 0 W/m2
02:49 9.6 °C 9.2 °C 1021.6 hPa WNW 4.5 km/h 8 km/h 94% 0 mm 0 W/m2
02:54 9.6 °C 9.2 °C 1021.6 hPa WNW 5 km/h 8 km/h 94% 0 mm 0 W/m2
02:59 9.4 °C 9.1 °C 1021.6 hPa WNW 2.9 km/h 6.4 km/h 94% 0 mm 0 W/m2
03:04 9.4 °C 9 °C 1021.6 hPa Calm   1.6 km/h 94% 0 mm 0 W/m2
03:09 9.3 °C 8.9 °C 1021.6 hPa Calm     94% 0 mm 0 W/m2
03:14 9 °C 8.6 °C 1021.6 hPa Calm   1.6 km/h 94% 0 mm 0 W/m2
03:19 8.7 °C 8.3 °C 1021.6 hPa Calm     94% 0 mm 0 W/m2
03:24 8.5 °C 8.1 °C 1021.6 hPa Calm     94% 0 mm 0 W/m2
03:29 8.3 °C 7.9 °C 1021.9 hPa Calm     94% 0 mm 0 W/m2
03:34 8.3 °C 7.9 °C 1021.6 hPa Calm     94% 0 mm 0 W/m2
03:39 8.2 °C 7.8 °C 1021.9 hPa Calm     94% 0 mm 0 W/m2
03:43 8.1 °C 7.7 °C 1021.9 hPa Calm     94% 0 mm 0 W/m2
03:49 7.8 °C 7.3 °C 1021.9 hPa Calm     94% 0 mm 0 W/m2
03:54 7.7 °C 7.2 °C 1021.9 hPa WNW 1 km/h 3.2 km/h 94% 0 mm 0 W/m2
03:59 7.7 °C 7.3 °C 1021.9 hPa WNW 2.7 km/h 6.4 km/h 94% 0 mm 0 W/m2
04:04 8.1 °C 7.7 °C 1021.9 hPa WNW 4.5 km/h 9.7 km/h 94% 0 mm 0 W/m2
04:08 8.3 °C 7.9 °C 1021.9 hPa WNW 0.8 km/h 8 km/h 94% 0 mm 0 W/m2
04:14 8.1 °C 7.7 °C 1022.2 hPa Calm     94% 0 mm 0 W/m2
04:19 7.8 °C 7.4 °C 1022.2 hPa WNW 0.3 km/h 1.6 km/h 94% 0 mm 0 W/m2
04:24 7.7 °C 7.2 °C 1022.2 hPa Calm     94% 0 mm 0 W/m2
04:29 7.5 °C 7.1 °C 1022.2 hPa Calm     94% 0 mm 0 W/m2
04:34 7.2 °C 6.8 °C 1022.2 hPa Calm     94% 0 mm 0 W/m2
04:39 7.1 °C 6.7 °C 1022.2 hPa Calm     94% 0 mm 0 W/m2
04:44 7.1 °C 6.7 °C 1022.2 hPa Calm     94% 0 mm 0 W/m2
04:49 7.1 °C 6.7 °C 1022.6 hPa Calm     94% 0 mm 0 W/m2
04:54 7.1 °C 6.7 °C 1022.6 hPa Calm     94% 0 mm 0 W/m2
04:59 7.1 °C 6.7 °C 1022.6 hPa WNW 0.8 km/h 3.2 km/h 94% 0 mm 0 W/m2
05:04 7.1 °C 6.7 °C 1022.6 hPa WNW 1.3 km/h 3.2 km/h 94% 0 mm 0 W/m2
05:09 6.8 °C 6.4 °C 1022.6 hPa WNW 0.3 km/h 3.2 km/h 94% 0 mm 0 W/m2
05:14 6.8 °C 6.4 °C 1022.6 hPa Calm   1.6 km/h 94% 0 mm 0 W/m2
05:19 6.8 °C 6.4 °C 1022.6 hPa Calm   1.6 km/h 94% 0 mm 0 W/m2
05:24 6.8 °C 6.4 °C 1022.6 hPa Calm   1.6 km/h 94% 0 mm 0 W/m2
05:29 6.7 °C 6.3 °C 1022.9 hPa Calm     94.2% 0 mm 0 W/m2
05:34 6.7 °C 6.3 °C 1022.9 hPa Calm     94.4% 0 mm 0 W/m2
05:39 6.6 °C 6.3 °C 1023.2 hPa Calm     94.6% 0 mm 0 W/m2
05:44 6.5 °C 6.2 °C 1023.2 hPa WNW 1 km/h 4.8 km/h 94.2% 0 mm 0 W/m2
05:48 6.5 °C 6.1 °C 1023.2 hPa WNW 1.4 km/h 4.8 km/h 94% 0 mm 0 W/m2
05:54 6.4 °C 6.2 °C 1023.2 hPa WNW 0.3 km/h 3.2 km/h 94.8% 0 mm 0 W/m2
05:59 6.5 °C 6.1 °C 1023.2 hPa WNW 0.3 km/h 3.2 km/h 94.2% 0 mm 0 W/m2
06:04 6.5 °C 6.2 °C 1023.2 hPa Calm   1.6 km/h 94.8% 0 mm 0 W/m2
06:09 6.5 °C 6.3 °C 1023.2 hPa Calm   1.6 km/h 95% 0 mm 0 W/m2
06:14 6.4 °C 6.2 °C 1023.2 hPa Calm   1.6 km/h 95% 0 mm 0 W/m2
06:19 6.3 °C 6.2 °C 1023.2 hPa Calm     95% 0 mm 0 W/m2
06:24 6.2 °C 6 °C 1023.6 hPa WNW 1.4 km/h 3.2 km/h 94.8% 0 mm 0 W/m2
06:29 6.1 °C 5.9 °C 1023.6 hPa WNW 1.3 km/h 3.2 km/h 95% 0 mm 0 W/m2
06:34 6.1 °C 5.9 °C 1023.6 hPa Calm     95% 0 mm 0 W/m2
06:39 6.2 °C 6 °C 1023.6 hPa Calm     95% 0 mm 0 W/m2
06:44 6.1 °C 5.9 °C 1023.6 hPa Calm     95% 0 mm 0 W/m2
06:49 6 °C 5.8 °C 1023.9 hPa Calm     95% 0 mm 0 W/m2
06:54 5.9 °C 5.7 °C 1023.9 hPa Calm     95% 0 mm 0 W/m2
06:59 5.9 °C 5.7 °C 1023.9 hPa Calm     95% 0 mm 0 W/m2
07:04 5.9 °C 5.7 °C 1023.9 hPa WNW 1.9 km/h 4.8 km/h 95% 0 mm 0 W/m2
07:09 5.9 °C 5.7 °C 1023.9 hPa WNW 0.6 km/h 4.8 km/h 95% 0 mm 0 W/m2
07:14 5.9 °C 5.7 °C 1024.3 hPa WNW 1 km/h 3.2 km/h 95% 0 mm 0 W/m2
07:19 5.9 °C 5.7 °C 1024.3 hPa Calm   3.2 km/h 95% 0 mm 0 W/m2
07:24 6 °C 5.8 °C 1024.3 hPa Calm     95% 0 mm 5 W/m2
07:29 5.9 °C 5.7 °C 1024.6 hPa Calm     95% 0 mm 5 W/m2
07:34 6 °C 5.8 °C 1024.6 hPa Calm     95% 0 mm 5 W/m2
07:39 6.1 °C 5.9 °C 1024.6 hPa Calm     95% 0 mm 7 W/m2
07:44 6 °C 5.8 °C 1024.9 hPa Calm     95% 0 mm 9 W/m2
07:49 5.8 °C 5.6 °C 1024.9 hPa Calm     95% 0 mm 14 W/m2
07:54 5.8 °C 5.6 °C 1024.9 hPa Calm     95% 0 mm 19 W/m2
07:59 5.9 °C 5.7 °C 1024.9 hPa Calm     95% 0 mm 19 W/m2
08:04 5.9 °C 5.7 °C 1024.9 hPa Calm   1.6 km/h 95% 0 mm 23 W/m2
08:09 5.9 °C 5.8 °C 1024.9 hPa WNW 0.3 km/h 3.2 km/h 95% 0 mm 30 W/m2
08:14 6.1 °C 5.9 °C 1024.9 hPa Calm     95% 0 mm 30 W/m2
08:19 6.2 °C 6 °C 1024.9 hPa Calm     95% 0 mm 32 W/m2
08:24 6.1 °C 5.9 °C 1024.9 hPa Calm     95% 0 mm 46 W/m2
08:29 6.3 °C 6.2 °C 1025.3 hPa Calm     95% 0 mm 51 W/m2
08:34 6.4 °C 6.3 °C 1025.3 hPa Calm     95% 0 mm 56 W/m2
08:39 6.7 °C 6.4 °C 1025.3 hPa Calm     95% 0 mm 58 W/m2
08:44 6.6 °C 6.4 °C 1025.3 hPa Calm     95% 0 mm 58 W/m2
08:49 6.6 °C 6.4 °C 1025.3 hPa Calm     95% 0 mm 49 W/m2
08:54 6.7 °C 6.5 °C 1025.3 hPa Calm     95% 0 mm 40 W/m2
08:59 6.8 °C 6.6 °C 1025.6 hPa Calm     95% 0 mm 37 W/m2
09:04 6.7 °C 6.6 °C 1025.6 hPa Calm     95% 0 mm 39 W/m2
09:09 7 °C 6.8 °C 1026 hPa Calm     95% 0 mm 49 W/m2
09:14 7.5 °C 7.2 °C 1026 hPa Calm     95% 0 mm 60 W/m2
09:19 7.2 °C 6.9 °C 1025.6 hPa Calm     95% 0 mm 47 W/m2
09:24 7.2 °C 6.9 °C 1025.6 hPa Calm     95% 0 mm 81 W/m2
09:29 7.2 °C 6.9 °C 1026 hPa Calm     95% 0 mm 91 W/m2
09:34 7.1 °C 6.9 °C 1026 hPa WNW 1.9 km/h 4.8 km/h 95% 0 mm 134 W/m2
09:39 7.2 °C 6.9 °C 1026 hPa WNW 0.3 km/h 4.8 km/h 95% 0 mm 149 W/m2
09:44 7.4 °C 7.1 °C 1026 hPa Calm   1.6 km/h 95% 0 mm 120 W/m2
09:49 7.8 °C 7.5 °C 1026 hPa Calm     95% 0 mm 151 W/m2
09:54 8 °C 7.7 °C 1026 hPa Calm     95% 0 mm 192 W/m2
09:59 8.2 °C 7.8 °C 1026 hPa WNW 0.3 km/h 3.2 km/h 94.2% 0 mm 211 W/m2
10:04 8.3 °C 7.9 °C 1026 hPa WNW 0.3 km/h 4.8 km/h 94% 0 mm 204 W/m2
10:09 9 °C 8.4 °C 1026.3 hPa Calm   1.6 km/h 93.2% 0 mm 178 W/m2
10:14 9 °C 8.3 °C 1026.3 hPa Calm   1.6 km/h 92.4% 0 mm 146 W/m2
10:19 8.9 °C 8.1 °C 1026.3 hPa WNW 0.6 km/h 3.2 km/h 91.6% 0 mm 146 W/m2
10:24 8.9 °C 8 °C 1026.6 hPa WNW 0.3 km/h 4.8 km/h 91% 0 mm 139 W/m2
10:29 9.1 °C 8.1 °C 1026.6 hPa WNW 3.1 km/h 6.4 km/h 90.8% 0 mm 139 W/m2
10:34 9.1 °C 8 °C 1026.6 hPa WNW 1.9 km/h 6.4 km/h 90% 0 mm 134 W/m2
10:39 9.2 °C 8.1 °C 1026.3 hPa WNW 1.9 km/h 8 km/h 90% 0 mm 120 W/m2
10:44 9.3 °C 8.2 °C 1026.6 hPa WNW 4.2 km/h 9.7 km/h 90% 0 mm 134 W/m2
10:49 9.3 °C 8.1 °C 1026.6 hPa WNW 1.4 km/h 11.3 km/h 89% 0 mm 135 W/m2
10:54 9.4 °C 8.2 °C 1026.6 hPa WNW 4.7 km/h 12.9 km/h 89% 0 mm 134 W/m2
10:59 9.4 °C 8.1 °C 1026.6 hPa WNW 7.2 km/h 14.5 km/h 88.6% 0 mm 155 W/m2
11:04 9.4 °C 8.1 °C 1026.6 hPa WNW 4 km/h 11.3 km/h 88% 0 mm 163 W/m2
11:09 9.6 °C 8.1 °C 1026.6 hPa WNW 8.4 km/h 14.5 km/h 87.2% 0 mm 163 W/m2
11:14 9.6 °C 7.9 °C 1026.6 hPa WNW 6.4 km/h 12.9 km/h 86% 0.25 mm 125 W/m2
11:19 9.7 °C 7.9 °C 1026.6 hPa WNW 5.5 km/h 12.9 km/h 86% 0.25 mm 139 W/m2
11:24 9.7 °C 7.8 °C 1026.6 hPa WNW 2.6 km/h 9.7 km/h 85% 0.25 mm 165 W/m2
11:29 9.8 °C 7.9 °C 1026.6 hPa WNW 3.9 km/h 8 km/h 85% 0.25 mm 156 W/m2
11:34 9.9 °C 8 °C 1026.3 hPa WNW 8.2 km/h 16.1 km/h 85% 0.25 mm 192 W/m2
11:39 9.9 °C 7.9 °C 1026.3 hPa WNW 8.5 km/h 14.5 km/h 84.6% 0.25 mm 292 W/m2
11:44 10.2 °C 8.1 °C 1026.3 hPa WNW 8.9 km/h 17.7 km/h 84% 0.25 mm 360 W/m2
11:49 10.4 °C 8.3 °C 1026.3 hPa WNW 6.3 km/h 12.9 km/h 83.8% 0.25 mm 397 W/m2
11:54 10.6 °C 8.2 °C 1026.3 hPa WNW 11.6 km/h 19.3 km/h 82.4% 0.25 mm 327 W/m2
11:59 10.7 °C 8.2 °C 1026.3 hPa WNW 12.2 km/h 17.7 km/h 81.6% 0.25 mm 325 W/m2
12:04 10.7 °C 8.1 °C 1026 hPa WNW 11.9 km/h 20.9 km/h 81% 0.25 mm 253 W/m2
12:09 10.6 °C 8 °C 1026 hPa NW 10 km/h 22.5 km/h 81% 0.25 mm 207 W/m2
12:14 10.7 °C 8.1 °C 1026 hPa NW 6.9 km/h 16.1 km/h 81% 0.25 mm 206 W/m2
12:19 10.7 °C 8.1 °C 1026 hPa NW 5.8 km/h 14.5 km/h 81% 0 mm 202 W/m2
12:24 10.6 °C 8 °C 1026.3 hPa NW 10.6 km/h 17.7 km/h 81% 0 mm 179 W/m2
12:29 10.6 °C 8 °C 1026.3 hPa NW 7.6 km/h 17.7 km/h 81% 0 mm 192 W/m2
12:34 10.6 °C 8 °C 1026.3 hPa WNW 8.9 km/h 17.7 km/h 81% 0 mm 179 W/m2
12:39 10.6 °C 7.9 °C 1026.3 hPa WNW 11.3 km/h 17.7 km/h 81% 0 mm 169 W/m2
12:44 10.5 °C 7.9 °C 1026.3 hPa WNW 6.6 km/h 17.7 km/h 81% 0 mm 167 W/m2
12:49 10.6 °C 7.9 °C 1026.3 hPa WNW 6.8 km/h 16.1 km/h 81% 0 mm 178 W/m2
12:54 10.6 °C 7.9 °C 1026.3 hPa WNW 5.8 km/h 16.1 km/h 81% 0 mm 287 W/m2
12:59 10.6 °C 8 °C 1026.3 hPa WNW 10.3 km/h 19.3 km/h 81% 0 mm 239 W/m2
13:04 10.8 °C 8.2 °C 1026.3 hPa WNW 6.1 km/h 17.7 km/h 81% 0 mm 229 W/m2
13:09 10.8 °C 8.1 °C 1026.3 hPa WNW 10.3 km/h 17.7 km/h 80.2% 0 mm 304 W/m2
13:14 10.9 °C 8.1 °C 1026.3 hPa WNW 10.6 km/h 17.7 km/h 80% 0 mm 339 W/m2
13:19 11.1 °C 8.3 °C 1026.3 hPa WNW 6.6 km/h 17.7 km/h 80% 0 mm 274 W/m2
13:24 11.2 °C 8.3 °C 1026.3 hPa WNW 8.2 km/h 14.5 km/h 79.2% 0 mm 241 W/m2
13:29 11.3 °C 8.3 °C 1026.3 hPa WNW 8 km/h 17.7 km/h 79% 0 mm 229 W/m2
13:34 11.4 °C 8.4 °C 1026.3 hPa WNW 5.8 km/h 14.5 km/h 79% 0 mm 223 W/m2
13:39 11.3 °C 8.2 °C 1026.3 hPa WNW 9.7 km/h 16.1 km/h 78.6% 0 mm 214 W/m2
13:44 11.3 °C 8.2 °C 1026 hPa WNW 7.4 km/h 16.1 km/h 78.6% 0 mm 209 W/m2
13:49 11.4 °C 8.4 °C 1026 hPa WNW 9.2 km/h 16.1 km/h 79% 0 mm 204 W/m2
13:54 11.4 °C 8.3 °C 1026 hPa WNW 7.2 km/h 14.5 km/h 78.8% 0 mm 199 W/m2
13:59 11.4 °C 8.3 °C 1026.3 hPa WNW 6.9 km/h 12.9 km/h 78.2% 0 mm 190 W/m2
14:04 11.4 °C 8.2 °C 1026.3 hPa WNW 11.1 km/h 14.5 km/h 78% 0 mm 188 W/m2
14:09 11.3 °C 8.1 °C 1026 hPa WNW 8.5 km/h 16.1 km/h 78% 0 mm 179 W/m2
14:14 11.3 °C 8.3 °C 1026 hPa WNW 8.5 km/h 14.5 km/h 79% 0 mm 165 W/m2
14:19 11.4 °C 8.2 °C 1026 hPa WNW 10.8 km/h 16.1 km/h 78.2% 0 mm 148 W/m2
14:24 11.3 °C 8.3 °C 1026.3 hPa WNW 6.8 km/h 12.9 km/h 78.6% 0 mm 149 W/m2
14:29 11.4 °C 8.3 °C 1026.3 hPa WNW 4 km/h 9.7 km/h 78.6% 0 mm 127 W/m2
14:33 11.4 °C 8.4 °C 1026.3 hPa WNW 4.3 km/h 9.7 km/h 78.8% 0 mm 120 W/m2
14:39 11.4 °C 8.3 °C 1026.3 hPa WNW 5.8 km/h 9.7 km/h 78% 0 mm 118 W/m2
14:44 11.5 °C 8.4 °C 1026.3 hPa WNW 2.1 km/h 8 km/h 78.4% 0 mm 132 W/m2
14:49 11.5 °C 8.4 °C 1026.3 hPa WNW 5 km/h 11.3 km/h 78.4% 0 mm 118 W/m2
14:54 11.3 °C 8.2 °C 1026.3 hPa WNW 6 km/h 12.9 km/h 78% 0 mm 81 W/m2
14:59 11.2 °C 8.1 °C 1026.6 hPa WNW 5.6 km/h 9.7 km/h 78% 0 mm 72 W/m2
15:04 11.2 °C 7.9 °C 1026.6 hPa WNW 5.3 km/h 9.7 km/h 78% 0 mm 65 W/m2
15:09 11.2 °C 8 °C 1026.6 hPa WNW 4.3 km/h 8 km/h 78% 0 mm 69 W/m2
15:14 11.1 °C 8 °C 1026.6 hPa WNW 4.5 km/h 8 km/h 78.4% 0 mm 56 W/m2
15:19 11.1 °C 8.1 °C 1026.6 hPa WNW 5.3 km/h 9.7 km/h 79% 0 mm 47 W/m2
15:24 10.9 °C 7.9 °C 1026.6 hPa WNW 3.1 km/h 8 km/h 79% 0 mm 40 W/m2
15:29 10.8 °C 7.8 °C 1026.6 hPa WNW 4.8 km/h 8 km/h 79% 0 mm 32 W/m2
15:34 10.7 °C 7.8 °C 1026.6 hPa WNW 4.3 km/h 8 km/h 80% 0 mm 25 W/m2
15:39 10.6 °C 7.6 °C 1026.6 hPa WNW 2.6 km/h 8 km/h 79.2% 0 mm 25 W/m2
15:44 10.4 °C 7.6 °C 1027 hPa Calm   4.8 km/h 79.8% 0 mm 23 W/m2
15:49 10.5 °C 7.7 °C 1026.6 hPa Calm     80% 0 mm 21 W/m2
15:54 10.4 °C 7.6 °C 1026.6 hPa WNW 0.3 km/h 3.2 km/h 80% 0 mm 18 W/m2
15:59 10.3 °C 7.4 °C 1026.6 hPa WNW 1 km/h 4.8 km/h 80% 0 mm 14 W/m2
16:04 10.2 °C 7.4 °C 1026.6 hPa Calm   1.6 km/h 80% 0 mm 11 W/m2
16:09 10.1 °C 7.4 °C 1026.6 hPa Calm     80.8% 0 mm 9 W/m2
16:14 9.9 °C 7.3 °C 1026.6 hPa Calm     81% 0 mm 5 W/m2
16:19 9.7 °C 7.1 °C 1026.6 hPa WNW 1.9 km/h 4.8 km/h 81.2% 0 mm 0 W/m2
16:24 9.3 °C 6.8 °C 1027 hPa WNW 3.4 km/h 6.4 km/h 81.8% 0 mm 0 W/m2
16:29 9.1 °C 6.8 °C 1027 hPa WNW 2.1 km/h 4.8 km/h 82.6% 0 mm 0 W/m2
16:34 9 °C 6.8 °C 1027 hPa WNW 1.6 km/h 4.8 km/h 83% 0 mm 0 W/m2
16:39 8.8 °C 6.7 °C 1027 hPa WNW 1.9 km/h 4.8 km/h 83% 0 mm 0 W/m2
16:44 8.8 °C 6.6 °C 1027 hPa WNW 0.3 km/h 4.8 km/h 83% 0 mm 0 W/m2
16:49 8.7 °C 6.6 °C 1027.3 hPa Calm     84% 0 mm 0 W/m2
16:54 8.6 °C 6.5 °C 1027.3 hPa Calm     84% 0 mm 0 W/m2
16:59 8.6 °C 6.4 °C 1027.3 hPa WNW 1.6 km/h 3.2 km/h 84% 0 mm 0 W/m2
17:04 8.4 °C 6.5 °C 1027.3 hPa Calm     85% 0 mm 0 W/m2
17:09 8.3 °C 6.4 °C 1027.3 hPa WNW 0.3 km/h 3.2 km/h 85% 0 mm 0 W/m2
17:14 8.2 °C 6.3 °C 1027.3 hPa WNW 1 km/h 4.8 km/h 85% 0 mm 0 W/m2
17:19 8.2 °C 6.2 °C 1027.3 hPa Calm   1.6 km/h 85% 0 mm 0 W/m2
17:24 8.1 °C 6.4 °C 1027.3 hPa Calm     86% 0 mm 0 W/m2
17:29 8 °C 6.3 °C 1027.7 hPa WNW 0.3 km/h 1.6 km/h 86% 0 mm 0 W/m2
17:34 7.7 °C 6 °C 1027.7 hPa WNW 2.4 km/h 4.8 km/h 86% 0 mm 0 W/m2
17:39 7.6 °C 5.9 °C 1027.7 hPa WNW 3.5 km/h 6.4 km/h 86.2% 0 mm 0 W/m2
17:44 7.6 °C 6.1 °C 1027.7 hPa WNW 2.3 km/h 6.4 km/h 87% 0 mm 0 W/m2
17:49 7.5 °C 6 °C 1027.7 hPa WNW 2.9 km/h 4.8 km/h 87% 0 mm 0 W/m2
17:54 7.4 °C 5.9 °C 1028 hPa WNW 2.6 km/h 4.8 km/h 87% 0 mm 0 W/m2
17:59 7.4 °C 5.9 °C 1028 hPa WNW 3.9 km/h 6.4 km/h 87% 0 mm 0 W/m2
18:04 7.3 °C 5.8 °C 1028 hPa WNW 2.7 km/h 6.4 km/h 87% 0 mm 0 W/m2
18:09 7.2 °C 5.8 °C 1028 hPa WNW 0.6 km/h 3.2 km/h 87.4% 0 mm 0 W/m2
18:14 7.2 °C 5.8 °C 1028.3 hPa Calm   1.6 km/h 88% 0 mm 0 W/m2
18:19 7.2 °C 5.8 °C 1028.3 hPa Calm     88% 0 mm 0 W/m2
18:24 7.2 °C 5.8 °C 1028 hPa Calm     88% 0 mm 0 W/m2
18:29 7.2 °C 5.8 °C 1028 hPa WNW 1.9 km/h 4.8 km/h 88% 0 mm 0 W/m2
18:34 7.2 °C 5.8 °C 1028.3 hPa WNW 2.3 km/h 4.8 km/h 88% 0 mm 0 W/m2
18:39 7.2 °C 5.8 °C 1028.3 hPa WNW 0.6 km/h 3.2 km/h 88.2% 0 mm 0 W/m2
18:44 7.2 °C 6 °C 1028.3 hPa WNW 0.6 km/h 3.2 km/h 89% 0 mm 0 W/m2
18:49 7.2 °C 6 °C 1028.3 hPa Calm   3.2 km/h 89% 0 mm 0 W/m2
18:54 7.2 °C 6.1 °C 1028.3 hPa Calm     89% 0 mm 0 W/m2
18:59 7.4 °C 6.2 °C 1028.3 hPa WNW 1.4 km/h 4.8 km/h 89% 0 mm 0 W/m2
19:04 7.4 °C 6.2 °C 1028.3 hPa WNW 1 km/h 3.2 km/h 89% 0 mm 0 W/m2
19:09 7.4 °C 6.2 °C 1028.3 hPa Calm     89% 0 mm 0 W/m2
19:14 7.6 °C 6.3 °C 1028.3 hPa Calm     89% 0 mm 0 W/m2
19:19 7.6 °C 6.4 °C 1028.3 hPa Calm     89% 0 mm 0 W/m2
19:24 7.7 °C 6.4 °C 1028.7 hPa Calm     89% 0 mm 0 W/m2
19:29 7.7 °C 6.4 °C 1028.7 hPa WNW 2.6 km/h 3.2 km/h 89% 0 mm 0 W/m2
19:31 7.7 °C 6.5 °C 1028.3 hPa WNW 1.4 km/h 3.2 km/h 89% 0 mm 0 W/m2
19:39 7.7 °C 6.5 °C 1028.7 hPa Calm     89% 0 mm 0 W/m2
19:44 7.7 °C 6.5 °C 1028.7 hPa Calm     89% 0 mm 0 W/m2
19:49 7.7 °C 6.4 °C 1028.3 hPa Calm     89% 0 mm 0 W/m2
19:54 7.6 °C 6.4 °C 1028.7 hPa WNW 1.4 km/h 3.2 km/h 89% 0 mm 0 W/m2
19:59 7.5 °C 6.3 °C 1028.7 hPa WNW 1.3 km/h 3.2 km/h 89% 0 mm 0 W/m2
20:04 7.3 °C 6.2 °C 1028.7 hPa Calm     89% 0 mm 0 W/m2
20:09 7.2 °C 6.1 °C 1028.7 hPa Calm     89% 0 mm 0 W/m2
20:14 7.2 °C 6 °C 1029 hPa WNW 1.3 km/h 3.2 km/h 89% 0 mm 0 W/m2
20:19 7.2 °C 6.1 °C 1029 hPa WNW 3.2 km/h 4.8 km/h 89.4% 0 mm 0 W/m2
20:24 7.1 °C 6.1 °C 1029 hPa WNW 4 km/h 6.4 km/h 90% 0 mm 0 W/m2
20:29 7.1 °C 6.1 °C 1029 hPa WNW 2.7 km/h 6.4 km/h 90% 0 mm 0 W/m2
20:34 7.1 °C 6.1 °C 1029 hPa WNW 1.4 km/h 3.2 km/h 90% 0 mm 0 W/m2
20:39 7.2 °C 6.2 °C 1029.3 hPa Calm   3.2 km/h 90% 0 mm 0 W/m2
20:44 7.2 °C 6.2 °C 1029.3 hPa WNW 1.3 km/h 4.8 km/h 90% 0 mm 0 W/m2
20:49 7.1 °C 6.1 °C 1029.3 hPa WNW 1.3 km/h 4.8 km/h 90% 0 mm 0 W/m2
20:54 7.1 °C 6.1 °C 1029.3 hPa Calm   1.6 km/h 90% 0 mm 0 W/m2
20:59 7.1 °C 6.1 °C 1029.3 hPa WNW 0.6 km/h 3.2 km/h 90% 0 mm 0 W/m2
21:04 6.9 °C 5.9 °C 1029.3 hPa WNW 1.4 km/h 3.2 km/h 90% 0 mm 0 W/m2
21:09 6.8 °C 5.8 °C 1029.3 hPa WNW 0.6 km/h 3.2 km/h 90% 0 mm 0 W/m2
21:14 6.7 °C 5.7 °C 1029.3 hPa Calm   1.6 km/h 90% 0 mm 0 W/m2
21:19 6.7 °C 5.7 °C 1029.3 hPa Calm     90% 0 mm 0 W/m2
21:24 6.5 °C 5.5 °C 1029.3 hPa Calm     90% 0 mm 0 W/m2
21:29 6.3 °C 5.3 °C 1029.3 hPa WNW 2.1 km/h 4.8 km/h 90% 0 mm 0 W/m2
21:34 6.2 °C 5.2 °C 1029.3 hPa WNW 1.4 km/h 3.2 km/h 90% 0 mm 0 W/m2
21:39 6.2 °C 5.2 °C 1029.3 hPa WNW 1.6 km/h 3.2 km/h 90% 0 mm 0 W/m2
21:44 6.2 °C 5.2 °C 1029.3 hPa WNW 0.6 km/h 3.2 km/h 90% 0 mm 0 W/m2
21:49 6.1 °C 5.1 °C 1029.3 hPa WNW 0.8 km/h 3.2 km/h 90% 0 mm 0 W/m2
21:54 6 °C 5 °C 1029.3 hPa WNW 2.1 km/h 3.2 km/h 90% 0 mm 0 W/m2
21:59 6.1 °C 5.2 °C 1029.3 hPa WNW 1.3 km/h 3.2 km/h 91% 0 mm 0 W/m2
22:04 6.2 °C 5.2 °C 1029.3 hPa WNW 1.9 km/h 3.2 km/h 91% 0 mm 0 W/m2
22:09 6.3 °C 5.3 °C 1029 hPa WNW 2.4 km/h 3.2 km/h 91% 0 mm 0 W/m2
22:14 6.3 °C 5.4 °C 1029 hPa WNW 0.3 km/h 3.2 km/h 91% 0 mm 0 W/m2
22:19 6.4 °C 5.5 °C 1029 hPa Calm   1.6 km/h 91% 0 mm 0 W/m2
22:24 6.4 °C 5.5 °C 1029 hPa WNW 0.6 km/h 3.2 km/h 91% 0 mm 0 W/m2
22:29 6.4 °C 5.5 °C 1029 hPa WNW 1.9 km/h 4.8 km/h 91% 0 mm 0 W/m2
22:34 6.4 °C 5.6 °C 1029.3 hPa Calm   3.2 km/h 91% 0 mm 0 W/m2
22:39 6.5 °C 5.6 °C 1029.3 hPa WNW 0.6 km/h 3.2 km/h 91% 0 mm 0 W/m2
22:44 6.6 °C 5.7 °C 1029.3 hPa WNW 0.6 km/h 3.2 km/h 91% 0 mm 0 W/m2
22:49 6.7 °C 5.8 °C 1029.3 hPa Calm     91% 0 mm 0 W/m2
22:54 6.7 °C 5.8 °C 1029.3 hPa Calm     91% 0 mm 0 W/m2
22:59 6.7 °C 5.8 °C 1029.3 hPa Calm     91% 0 mm 0 W/m2
23:03 6.6 °C 5.7 °C 1029.3 hPa Calm     91% 0 mm 0 W/m2
23:09 6.4 °C 5.6 °C 1029.3 hPa Calm     91% 0 mm 0 W/m2
23:14 6.3 °C 5.4 °C 1029.3 hPa Calm     91% 0 mm 0 W/m2
23:19 6.3 °C 5.4 °C 1029.3 hPa WNW 1 km/h 3.2 km/h 91% 0 mm 0 W/m2
23:24 6.3 °C 5.6 °C 1029.3 hPa WNW 2.3 km/h 4.8 km/h 91.8% 0 mm 0 W/m2
23:29 6.3 °C 5.7 °C 1029.3 hPa WNW 4.3 km/h 6.4 km/h 92% 0 mm 0 W/m2
23:34 6.4 °C 5.7 °C 1029 hPa WNW 4.2 km/h 8 km/h 92% 0 mm 0 W/m2
23:39 6.5 °C 5.8 °C 1029.3 hPa WNW 3.7 km/h 6.4 km/h 92% 0 mm 0 W/m2
23:44 6.6 °C 5.9 °C 1029 hPa WNW 2.3 km/h 4.8 km/h 92% 0 mm 0 W/m2
23:49 6.6 °C 5.9 °C 1029.3 hPa WNW 1.8 km/h 4.8 km/h 92% 0 mm 0 W/m2
23:54 6.7 °C 6 °C 1029.3 hPa WNW 2.1 km/h 4.8 km/h 92% 0 mm 0 W/m2
23:59 6.8 °C 6.2 °C 1029.3 hPa WNW 1.9 km/h 4.8 km/h 92% 0 mm 0 W/m2
Bath Spa Weather
Compliments of Weather Underground - 2 mb